sensor_id;sensor_type;location;lat;lon;timestamp;P1;durP1;ratioP1;P2;durP2;ratioP2
19830;SDS011;10076;52.008;4.708;2023-12-29T00:02:01;21.10;;;19.40;;
19830;SDS011;10076;52.008;4.708;2023-12-29T00:04:27;22.90;;;21.00;;
19830;SDS011;10076;52.008;4.708;2023-12-29T00:06:52;21.97;;;20.17;;
19830;SDS011;10076;52.008;4.708;2023-12-29T00:09:18;21.50;;;19.70;;
19830;SDS011;10076;52.008;4.708;2023-12-29T00:11:49;23.70;;;21.07;;
19830;SDS011;10076;52.008;4.708;2023-12-29T00:14:15;24.83;;;22.20;;
19830;SDS011;10076;52.008;4.708;2023-12-29T00:16:41;24.53;;;22.53;;
19830;SDS011;10076;52.008;4.708;2023-12-29T00:19:06;25.50;;;23.33;;
19830;SDS011;10076;52.008;4.708;2023-12-29T00:21:31;25.40;;;23.33;;
19830;SDS011;10076;52.008;4.708;2023-12-29T00:23:57;27.17;;;25.07;;
19830;SDS011;10076;52.008;4.708;2023-12-29T00:26:22;26.63;;;24.07;;
19830;SDS011;10076;52.008;4.708;2023-12-29T00:28:48;26.50;;;24.50;;
19830;SDS011;10076;52.008;4.708;2023-12-29T00:31:16;26.33;;;24.13;;
19830;SDS011;10076;52.008;4.708;2023-12-29T00:33:42;26.23;;;24.23;;
19830;SDS011;10076;52.008;4.708;2023-12-29T00:36:08;26.43;;;24.23;;
19830;SDS011;10076;52.008;4.708;2023-12-29T00:38:38;26.57;;;24.37;;
19830;SDS011;10076;52.008;4.708;2023-12-29T00:41:04;27.57;;;25.20;;
19830;SDS011;10076;52.008;4.708;2023-12-29T00:43:30;26.60;;;24.47;;
19830;SDS011;10076;52.008;4.708;2023-12-29T00:45:55;26.03;;;24.03;;
19830;SDS011;10076;52.008;4.708;2023-12-29T00:48:21;27.23;;;25.00;;
19830;SDS011;10076;52.008;4.708;2023-12-29T00:50:46;26.50;;;24.40;;
19830;SDS011;10076;52.008;4.708;2023-12-29T00:53:12;27.33;;;25.13;;
19830;SDS011;10076;52.008;4.708;2023-12-29T00:55:37;28.53;;;25.73;;
19830;SDS011;10076;52.008;4.708;2023-12-29T00:58:02;26.97;;;24.87;;
19830;SDS011;10076;52.008;4.708;2023-12-29T01:00:27;27.00;;;25.00;;
19830;SDS011;10076;52.008;4.708;2023-12-29T01:02:53;28.40;;;26.20;;
19830;SDS011;10076;52.008;4.708;2023-12-29T01:05:18;27.00;;;24.80;;
19830;SDS011;10076;52.008;4.708;2023-12-29T01:07:43;26.77;;;24.57;;
19830;SDS011;10076;52.008;4.708;2023-12-29T01:10:09;27.27;;;25.17;;
19830;SDS011;10076;52.008;4.708;2023-12-29T01:12:34;27.13;;;24.83;;
19830;SDS011;10076;52.008;4.708;2023-12-29T01:14:59;26.93;;;24.73;;
19830;SDS011;10076;52.008;4.708;2023-12-29T01:17:25;28.27;;;25.97;;
19830;SDS011;10076;52.008;4.708;2023-12-29T01:19:52;27.73;;;25.40;;
19830;SDS011;10076;52.008;4.708;2023-12-29T01:22:17;27.90;;;25.30;;
19830;SDS011;10076;52.008;4.708;2023-12-29T01:24:43;28.40;;;26.20;;
19830;SDS011;10076;52.008;4.708;2023-12-29T01:27:08;28.27;;;25.87;;
19830;SDS011;10076;52.008;4.708;2023-12-29T01:29:33;26.73;;;24.60;;
19830;SDS011;10076;52.008;4.708;2023-12-29T01:31:58;27.20;;;24.90;;
19830;SDS011;10076;52.008;4.708;2023-12-29T01:34:24;26.23;;;24.13;;
19830;SDS011;10076;52.008;4.708;2023-12-29T01:36:57;26.47;;;24.27;;
19830;SDS011;10076;52.008;4.708;2023-12-29T01:39:22;28.00;;;25.70;;
19830;SDS011;10076;52.008;4.708;2023-12-29T01:41:47;28.47;;;26.00;;
19830;SDS011;10076;52.008;4.708;2023-12-29T01:44:17;27.97;;;25.67;;
19830;SDS011;10076;52.008;4.708;2023-12-29T01:46:47;27.83;;;25.57;;
19830;SDS011;10076;52.008;4.708;2023-12-29T01:49:15;27.83;;;25.63;;
19830;SDS011;10076;52.008;4.708;2023-12-29T01:51:42;26.17;;;24.00;;
19830;SDS011;10076;52.008;4.708;2023-12-29T01:54:09;26.30;;;24.10;;
19830;SDS011;10076;52.008;4.708;2023-12-29T01:56:36;25.87;;;23.67;;
19830;SDS011;10076;52.008;4.708;2023-12-29T01:59:02;25.13;;;22.90;;
19830;SDS011;10076;52.008;4.708;2023-12-29T02:01:28;26.33;;;23.93;;
19830;SDS011;10076;52.008;4.708;2023-12-29T02:03:54;28.33;;;25.60;;
19830;SDS011;10076;52.008;4.708;2023-12-29T02:06:20;27.30;;;24.97;;
19830;SDS011;10076;52.008;4.708;2023-12-29T02:08:46;28.17;;;25.83;;
19830;SDS011;10076;52.008;4.708;2023-12-29T02:11:13;28.27;;;25.87;;
19830;SDS011;10076;52.008;4.708;2023-12-29T02:13:38;27.60;;;25.00;;
19830;SDS011;10076;52.008;4.708;2023-12-29T02:16:07;26.33;;;24.13;;
19830;SDS011;10076;52.008;4.708;2023-12-29T02:18:37;26.77;;;24.33;;
19830;SDS011;10076;52.008;4.708;2023-12-29T02:21:05;27.37;;;24.97;;
19830;SDS011;10076;52.008;4.708;2023-12-29T02:23:30;26.90;;;24.07;;
19830;SDS011;10076;52.008;4.708;2023-12-29T02:25:58;26.00;;;23.70;;
19830;SDS011;10076;52.008;4.708;2023-12-29T02:28:28;25.73;;;23.43;;
19830;SDS011;10076;52.008;4.708;2023-12-29T02:31:16;26.13;;;23.73;;
19830;SDS011;10076;52.008;4.708;2023-12-29T02:33:45;25.67;;;23.47;;
19830;SDS011;10076;52.008;4.708;2023-12-29T02:36:12;26.73;;;24.17;;
19830;SDS011;10076;52.008;4.708;2023-12-29T02:38:39;26.17;;;23.80;;
19830;SDS011;10076;52.008;4.708;2023-12-29T02:41:05;25.83;;;23.30;;
19830;SDS011;10076;52.008;4.708;2023-12-29T02:43:31;26.40;;;24.20;;
19830;SDS011;10076;52.008;4.708;2023-12-29T02:45:57;27.30;;;24.80;;
19830;SDS011;10076;52.008;4.708;2023-12-29T02:48:23;26.47;;;24.17;;
19830;SDS011;10076;52.008;4.708;2023-12-29T02:50:48;26.93;;;24.53;;
19830;SDS011;10076;52.008;4.708;2023-12-29T02:53:13;27.00;;;24.60;;
19830;SDS011;10076;52.008;4.708;2023-12-29T02:55:38;29.87;;;26.77;;
19830;SDS011;10076;52.008;4.708;2023-12-29T02:58:04;27.30;;;25.10;;
19830;SDS011;10076;52.008;4.708;2023-12-29T03:00:29;26.43;;;24.20;;
19830;SDS011;10076;52.008;4.708;2023-12-29T03:02:54;27.40;;;24.73;;
19830;SDS011;10076;52.008;4.708;2023-12-29T03:05:20;28.37;;;25.87;;
19830;SDS011;10076;52.008;4.708;2023-12-29T03:07:45;27.23;;;25.03;;
19830;SDS011;10076;52.008;4.708;2023-12-29T03:10:11;28.10;;;25.73;;
19830;SDS011;10076;52.008;4.708;2023-12-29T03:12:36;26.73;;;24.43;;
19830;SDS011;10076;52.008;4.708;2023-12-29T03:15:02;27.47;;;25.03;;
19830;SDS011;10076;52.008;4.708;2023-12-29T03:17:27;28.40;;;25.33;;
19830;SDS011;10076;52.008;4.708;2023-12-29T03:19:53;26.87;;;24.37;;
19830;SDS011;10076;52.008;4.708;2023-12-29T03:22:18;27.07;;;24.77;;
19830;SDS011;10076;52.008;4.708;2023-12-29T03:24:43;26.73;;;24.33;;
19830;SDS011;10076;52.008;4.708;2023-12-29T03:27:09;26.97;;;24.70;;
19830;SDS011;10076;52.008;4.708;2023-12-29T03:29:35;25.17;;;23.00;;
19830;SDS011;10076;52.008;4.708;2023-12-29T03:32:01;24.73;;;22.63;;
19830;SDS011;10076;52.008;4.708;2023-12-29T03:34:26;25.57;;;23.07;;
19830;SDS011;10076;52.008;4.708;2023-12-29T03:36:51;26.07;;;23.87;;
19830;SDS011;10076;52.008;4.708;2023-12-29T03:39:16;26.73;;;24.07;;
19830;SDS011;10076;52.008;4.708;2023-12-29T03:41:42;30.07;;;23.37;;
19830;SDS011;10076;52.008;4.708;2023-12-29T03:44:07;26.30;;;23.80;;
19830;SDS011;10076;52.008;4.708;2023-12-29T03:46:33;25.20;;;22.77;;
19830;SDS011;10076;52.008;4.708;2023-12-29T03:48:58;25.67;;;23.40;;
19830;SDS011;10076;52.008;4.708;2023-12-29T03:51:23;26.27;;;24.10;;
19830;SDS011;10076;52.008;4.708;2023-12-29T03:53:49;26.07;;;23.53;;
19830;SDS011;10076;52.008;4.708;2023-12-29T03:56:15;25.57;;;23.03;;
19830;SDS011;10076;52.008;4.708;2023-12-29T03:58:42;26.00;;;23.73;;
19830;SDS011;10076;52.008;4.708;2023-12-29T04:01:14;26.27;;;23.87;;
19830;SDS011;10076;52.008;4.708;2023-12-29T04:03:40;26.93;;;24.53;;
19830;SDS011;10076;52.008;4.708;2023-12-29T04:06:07;28.30;;;23.90;;
19830;SDS011;10076;52.008;4.708;2023-12-29T04:08:33;24.83;;;22.77;;
19830;SDS011;10076;52.008;4.708;2023-12-29T04:10:59;24.50;;;22.50;;
19830;SDS011;10076;52.008;4.708;2023-12-29T04:13:26;24.97;;;22.60;;
19830;SDS011;10076;52.008;4.708;2023-12-29T04:15:51;29.20;;;23.40;;
19830;SDS011;10076;52.008;4.708;2023-12-29T04:18:17;25.27;;;23.20;;
19830;SDS011;10076;52.008;4.708;2023-12-29T04:20:42;25.10;;;22.50;;
19830;SDS011;10076;52.008;4.708;2023-12-29T04:23:08;24.77;;;22.57;;
19830;SDS011;10076;52.008;4.708;2023-12-29T04:25:34;33.33;;;23.73;;
19830;SDS011;10076;52.008;4.708;2023-12-29T04:27:59;25.10;;;22.80;;
19830;SDS011;10076;52.008;4.708;2023-12-29T04:30:25;26.13;;;23.87;;
19830;SDS011;10076;52.008;4.708;2023-12-29T04:32:50;30.10;;;23.70;;
19830;SDS011;10076;52.008;4.708;2023-12-29T04:35:15;26.33;;;23.13;;
19830;SDS011;10076;52.008;4.708;2023-12-29T04:37:43;26.17;;;23.63;;
19830;SDS011;10076;52.008;4.708;2023-12-29T04:40:09;24.63;;;22.10;;
19830;SDS011;10076;52.008;4.708;2023-12-29T04:42:35;24.83;;;22.57;;
19830;SDS011;10076;52.008;4.708;2023-12-29T04:45:00;28.20;;;25.43;;
19830;SDS011;10076;52.008;4.708;2023-12-29T04:47:26;25.60;;;23.07;;
19830;SDS011;10076;52.008;4.708;2023-12-29T04:49:51;23.80;;;21.87;;
19830;SDS011;10076;52.008;4.708;2023-12-29T04:52:16;25.57;;;23.07;;
19830;SDS011;10076;52.008;4.708;2023-12-29T04:54:42;25.13;;;22.37;;
19830;SDS011;10076;52.008;4.708;2023-12-29T04:57:07;25.17;;;23.10;;
19830;SDS011;10076;52.008;4.708;2023-12-29T04:59:32;26.20;;;23.80;;
19830;SDS011;10076;52.008;4.708;2023-12-29T05:01:57;24.73;;;22.73;;
19830;SDS011;10076;52.008;4.708;2023-12-29T05:04:23;25.07;;;22.70;;
19830;SDS011;10076;52.008;4.708;2023-12-29T05:06:48;27.77;;;23.63;;
19830;SDS011;10076;52.008;4.708;2023-12-29T05:09:13;25.47;;;22.83;;
19830;SDS011;10076;52.008;4.708;2023-12-29T05:11:39;25.60;;;23.20;;
19830;SDS011;10076;52.008;4.708;2023-12-29T05:14:05;25.27;;;23.17;;
19830;SDS011;10076;52.008;4.708;2023-12-29T05:16:30;24.50;;;22.20;;
19830;SDS011;10076;52.008;4.708;2023-12-29T05:18:55;23.97;;;21.80;;
19830;SDS011;10076;52.008;4.708;2023-12-29T05:21:20;25.10;;;23.07;;
19830;SDS011;10076;52.008;4.708;2023-12-29T05:23:46;25.07;;;22.97;;
19830;SDS011;10076;52.008;4.708;2023-12-29T05:26:12;26.47;;;24.07;;
19830;SDS011;10076;52.008;4.708;2023-12-29T05:28:38;25.70;;;23.67;;
19830;SDS011;10076;52.008;4.708;2023-12-29T05:31:04;26.97;;;24.53;;
19830;SDS011;10076;52.008;4.708;2023-12-29T05:33:30;25.70;;;23.60;;
19830;SDS011;10076;52.008;4.708;2023-12-29T05:35:55;24.13;;;22.13;;
19830;SDS011;10076;52.008;4.708;2023-12-29T05:38:21;23.60;;;21.60;;
19830;SDS011;10076;52.008;4.708;2023-12-29T05:40:46;24.10;;;22.17;;
19830;SDS011;10076;52.008;4.708;2023-12-29T05:43:12;23.27;;;21.27;;
19830;SDS011;10076;52.008;4.708;2023-12-29T05:45:37;24.43;;;22.10;;
19830;SDS011;10076;52.008;4.708;2023-12-29T05:48:02;24.73;;;22.30;;
19830;SDS011;10076;52.008;4.708;2023-12-29T05:50:28;23.80;;;21.80;;
19830;SDS011;10076;52.008;4.708;2023-12-29T05:52:53;24.07;;;21.97;;
19830;SDS011;10076;52.008;4.708;2023-12-29T05:55:19;23.90;;;21.93;;
19830;SDS011;10076;52.008;4.708;2023-12-29T05:57:44;24.87;;;22.57;;
19830;SDS011;10076;52.008;4.708;2023-12-29T06:00:10;23.97;;;21.83;;
19830;SDS011;10076;52.008;4.708;2023-12-29T06:02:39;24.30;;;22.07;;
19830;SDS011;10076;52.008;4.708;2023-12-29T06:05:06;24.23;;;22.33;;
19830;SDS011;10076;52.008;4.708;2023-12-29T06:07:32;23.47;;;21.67;;
19830;SDS011;10076;52.008;4.708;2023-12-29T06:09:58;24.50;;;21.90;;
19830;SDS011;10076;52.008;4.708;2023-12-29T06:12:23;23.60;;;21.60;;
19830;SDS011;10076;52.008;4.708;2023-12-29T06:14:49;24.80;;;22.80;;
19830;SDS011;10076;52.008;4.708;2023-12-29T06:17:15;24.13;;;22.03;;
19830;SDS011;10076;52.008;4.708;2023-12-29T06:19:40;26.50;;;23.97;;
19830;SDS011;10076;52.008;4.708;2023-12-29T06:22:06;24.77;;;22.40;;
19830;SDS011;10076;52.008;4.708;2023-12-29T06:24:36;23.57;;;21.57;;
19830;SDS011;10076;52.008;4.708;2023-12-29T06:27:02;25.33;;;23.00;;
19830;SDS011;10076;52.008;4.708;2023-12-29T06:29:27;23.70;;;21.70;;
19830;SDS011;10076;52.008;4.708;2023-12-29T06:31:53;22.87;;;20.97;;
19830;SDS011;10076;52.008;4.708;2023-12-29T06:34:18;23.73;;;21.63;;
19830;SDS011;10076;52.008;4.708;2023-12-29T06:36:44;23.53;;;21.53;;
19830;SDS011;10076;52.008;4.708;2023-12-29T06:39:09;24.37;;;22.07;;
19830;SDS011;10076;52.008;4.708;2023-12-29T06:41:34;22.80;;;20.90;;
19830;SDS011;10076;52.008;4.708;2023-12-29T06:44:00;23.10;;;21.20;;
19830;SDS011;10076;52.008;4.708;2023-12-29T06:46:25;22.83;;;20.80;;
19830;SDS011;10076;52.008;4.708;2023-12-29T06:48:50;22.90;;;20.87;;
19830;SDS011;10076;52.008;4.708;2023-12-29T06:51:16;23.00;;;21.00;;
19830;SDS011;10076;52.008;4.708;2023-12-29T06:53:43;22.50;;;20.60;;
19830;SDS011;10076;52.008;4.708;2023-12-29T06:56:12;23.23;;;21.00;;
19830;SDS011;10076;52.008;4.708;2023-12-29T06:58:38;22.50;;;20.60;;
19830;SDS011;10076;52.008;4.708;2023-12-29T07:01:03;22.67;;;20.47;;
19830;SDS011;10076;52.008;4.708;2023-12-29T07:03:29;22.00;;;20.10;;
19830;SDS011;10076;52.008;4.708;2023-12-29T07:05:54;22.70;;;20.60;;
19830;SDS011;10076;52.008;4.708;2023-12-29T07:08:19;22.33;;;20.37;;
19830;SDS011;10076;52.008;4.708;2023-12-29T07:10:45;21.73;;;19.83;;
19830;SDS011;10076;52.008;4.708;2023-12-29T07:13:15;23.40;;;21.17;;
19830;SDS011;10076;52.008;4.708;2023-12-29T07:15:40;23.00;;;21.00;;
19830;SDS011;10076;52.008;4.708;2023-12-29T07:18:05;22.63;;;20.63;;
19830;SDS011;10076;52.008;4.708;2023-12-29T07:20:31;22.80;;;20.10;;
19830;SDS011;10076;52.008;4.708;2023-12-29T07:22:56;22.77;;;20.77;;
19830;SDS011;10076;52.008;4.708;2023-12-29T07:25:21;21.10;;;19.10;;
19830;SDS011;10076;52.008;4.708;2023-12-29T07:27:47;21.37;;;19.03;;
19830;SDS011;10076;52.008;4.708;2023-12-29T07:30:13;23.40;;;20.07;;
19830;SDS011;10076;52.008;4.708;2023-12-29T07:32:39;22.20;;;20.20;;
19830;SDS011;10076;52.008;4.708;2023-12-29T07:35:04;22.77;;;20.57;;
19830;SDS011;10076;52.008;4.708;2023-12-29T07:37:30;21.83;;;19.93;;
19830;SDS011;10076;52.008;4.708;2023-12-29T07:39:55;23.10;;;21.00;;
19830;SDS011;10076;52.008;4.708;2023-12-29T07:42:20;22.40;;;20.50;;
19830;SDS011;10076;52.008;4.708;2023-12-29T07:44:46;23.03;;;20.70;;
19830;SDS011;10076;52.008;4.708;2023-12-29T07:47:11;21.97;;;19.97;;
19830;SDS011;10076;52.008;4.708;2023-12-29T07:49:37;22.03;;;20.10;;
19830;SDS011;10076;52.008;4.708;2023-12-29T07:52:02;22.17;;;20.17;;
19830;SDS011;10076;52.008;4.708;2023-12-29T07:54:28;22.57;;;20.57;;
19830;SDS011;10076;52.008;4.708;2023-12-29T07:56:53;21.10;;;19.20;;
19830;SDS011;10076;52.008;4.708;2023-12-29T07:59:18;21.13;;;19.33;;
19830;SDS011;10076;52.008;4.708;2023-12-29T08:01:44;21.48;;;19.48;;
19830;SDS011;10076;52.008;4.708;2023-12-29T08:04:09;22.03;;;19.73;;
19830;SDS011;10076;52.008;4.708;2023-12-29T08:06:37;21.17;;;19.27;;
19830;SDS011;10076;52.008;4.708;2023-12-29T08:09:03;22.00;;;20.07;;
19830;SDS011;10076;52.008;4.708;2023-12-29T08:11:28;21.37;;;19.47;;
19830;SDS011;10076;52.008;4.708;2023-12-29T08:13:53;20.87;;;18.97;;
19830;SDS011;10076;52.008;4.708;2023-12-29T08:16:20;21.30;;;19.40;;
19830;SDS011;10076;52.008;4.708;2023-12-29T08:18:46;20.80;;;18.80;;
19830;SDS011;10076;52.008;4.708;2023-12-29T08:21:20;21.17;;;19.27;;
19830;SDS011;10076;52.008;4.708;2023-12-29T08:23:46;20.17;;;18.37;;
19830;SDS011;10076;52.008;4.708;2023-12-29T08:26:12;19.43;;;17.73;;
19830;SDS011;10076;52.008;4.708;2023-12-29T08:28:37;20.07;;;18.27;;
19830;SDS011;10076;52.008;4.708;2023-12-29T08:31:02;20.83;;;18.93;;
19830;SDS011;10076;52.008;4.708;2023-12-29T08:33:28;19.93;;;18.03;;
19830;SDS011;10076;52.008;4.708;2023-12-29T08:35:53;21.33;;;19.23;;
19830;SDS011;10076;52.008;4.708;2023-12-29T08:38:18;19.83;;;18.03;;
19830;SDS011;10076;52.008;4.708;2023-12-29T08:40:44;20.20;;;18.40;;
19830;SDS011;10076;52.008;4.708;2023-12-29T08:43:09;20.20;;;18.40;;
19830;SDS011;10076;52.008;4.708;2023-12-29T08:45:34;20.60;;;18.70;;
19830;SDS011;10076;52.008;4.708;2023-12-29T08:48:01;20.50;;;18.70;;
19830;SDS011;10076;52.008;4.708;2023-12-29T08:50:27;20.30;;;18.50;;
19830;SDS011;10076;52.008;4.708;2023-12-29T08:52:52;20.30;;;18.50;;
19830;SDS011;10076;52.008;4.708;2023-12-29T08:55:17;20.57;;;18.77;;
19830;SDS011;10076;52.008;4.708;2023-12-29T08:57:43;20.23;;;18.43;;
19830;SDS011;10076;52.008;4.708;2023-12-29T09:00:08;20.13;;;18.33;;
19830;SDS011;10076;52.008;4.708;2023-12-29T09:02:34;20.77;;;18.97;;
19830;SDS011;10076;52.008;4.708;2023-12-29T09:05:00;21.23;;;19.40;;
19830;SDS011;10076;52.008;4.708;2023-12-29T09:07:25;20.93;;;19.03;;
19830;SDS011;10076;52.008;4.708;2023-12-29T09:09:53;21.70;;;19.80;;
19830;SDS011;10076;52.008;4.708;2023-12-29T09:12:18;21.47;;;19.57;;
19830;SDS011;10076;52.008;4.708;2023-12-29T09:14:44;21.90;;;19.70;;
19830;SDS011;10076;52.008;4.708;2023-12-29T09:17:09;21.13;;;19.23;;
19830;SDS011;10076;52.008;4.708;2023-12-29T09:19:34;21.23;;;19.33;;
19830;SDS011;10076;52.008;4.708;2023-12-29T09:22:00;21.27;;;19.27;;
19830;SDS011;10076;52.008;4.708;2023-12-29T09:24:25;20.73;;;18.93;;
19830;SDS011;10076;52.008;4.708;2023-12-29T09:26:51;21.13;;;19.33;;
19830;SDS011;10076;52.008;4.708;2023-12-29T09:29:17;21.50;;;19.50;;
19830;SDS011;10076;52.008;4.708;2023-12-29T09:31:42;21.40;;;19.50;;
19830;SDS011;10076;52.008;4.708;2023-12-29T09:34:08;22.33;;;20.03;;
19830;SDS011;10076;52.008;4.708;2023-12-29T09:36:33;21.90;;;19.77;;
19830;SDS011;10076;52.008;4.708;2023-12-29T09:38:59;21.70;;;19.80;;
19830;SDS011;10076;52.008;4.708;2023-12-29T09:41:24;21.50;;;19.60;;
19830;SDS011;10076;52.008;4.708;2023-12-29T09:43:51;22.23;;;20.23;;
19830;SDS011;10076;52.008;4.708;2023-12-29T09:46:16;21.33;;;19.43;;
19830;SDS011;10076;52.008;4.708;2023-12-29T09:48:45;22.00;;;20.00;;
19830;SDS011;10076;52.008;4.708;2023-12-29T09:51:11;21.73;;;19.60;;
19830;SDS011;10076;52.008;4.708;2023-12-29T09:53:38;21.73;;;19.63;;
19830;SDS011;10076;52.008;4.708;2023-12-29T09:56:07;22.47;;;20.33;;
19830;SDS011;10076;52.008;4.708;2023-12-29T09:58:33;22.77;;;20.67;;
19830;SDS011;10076;52.008;4.708;2023-12-29T10:01:01;21.87;;;19.87;;
19830;SDS011;10076;52.008;4.708;2023-12-29T10:03:28;22.60;;;19.93;;
19830;SDS011;10076;52.008;4.708;2023-12-29T10:05:54;21.77;;;19.90;;
19830;SDS011;10076;52.008;4.708;2023-12-29T10:08:22;22.67;;;20.77;;
19830;SDS011;10076;52.008;4.708;2023-12-29T10:10:48;22.93;;;21.03;;
19830;SDS011;10076;52.008;4.708;2023-12-29T10:13:16;22.70;;;20.90;;
19830;SDS011;10076;52.008;4.708;2023-12-29T10:15:47;22.73;;;20.93;;
19830;SDS011;10076;52.008;4.708;2023-12-29T10:18:32;23.50;;;21.13;;
19830;SDS011;10076;52.008;4.708;2023-12-29T10:21:29;22.23;;;20.43;;
19830;SDS011;10076;52.008;4.708;2023-12-29T10:26:40;23.40;;;21.40;;
19830;SDS011;10076;52.008;4.708;2023-12-29T10:29:06;23.07;;;20.90;;
19830;SDS011;10076;52.008;4.708;2023-12-29T10:31:32;22.67;;;20.67;;
19830;SDS011;10076;52.008;4.708;2023-12-29T10:36:48;22.73;;;20.60;;
19830;SDS011;10076;52.008;4.708;2023-12-29T10:39:14;24.33;;;21.93;;
19830;SDS011;10076;52.008;4.708;2023-12-29T10:41:40;23.40;;;20.93;;
19830;SDS011;10076;52.008;4.708;2023-12-29T10:44:06;23.57;;;21.37;;
19830;SDS011;10076;52.008;4.708;2023-12-29T10:46:32;24.63;;;22.43;;
19830;SDS011;10076;52.008;4.708;2023-12-29T10:49:08;23.13;;;21.17;;
19830;SDS011;10076;52.008;4.708;2023-12-29T10:51:38;22.60;;;20.70;;
19830;SDS011;10076;52.008;4.708;2023-12-29T10:54:04;22.80;;;20.83;;
19830;SDS011;10076;52.008;4.708;2023-12-29T10:56:31;22.67;;;20.77;;
19830;SDS011;10076;52.008;4.708;2023-12-29T10:59:00;24.13;;;22.07;;
19830;SDS011;10076;52.008;4.708;2023-12-29T11:01:34;24.23;;;22.10;;
19830;SDS011;10076;52.008;4.708;2023-12-29T11:04:09;23.93;;;21.83;;
19830;SDS011;10076;52.008;4.708;2023-12-29T11:06:41;23.90;;;21.43;;
19830;SDS011;10076;52.008;4.708;2023-12-29T11:09:10;23.70;;;21.57;;
19830;SDS011;10076;52.008;4.708;2023-12-29T11:11:36;24.43;;;21.97;;
19830;SDS011;10076;52.008;4.708;2023-12-29T11:14:02;24.13;;;22.03;;
19830;SDS011;10076;52.008;4.708;2023-12-29T11:16:29;23.67;;;21.63;;
19830;SDS011;10076;52.008;4.708;2023-12-29T11:18:56;22.60;;;20.70;;
19830;SDS011;10076;52.008;4.708;2023-12-29T11:21:21;23.30;;;21.17;;
19830;SDS011;10076;52.008;4.708;2023-12-29T11:23:48;23.30;;;21.30;;
19830;SDS011;10076;52.008;4.708;2023-12-29T11:26:13;22.17;;;20.07;;
19830;SDS011;10076;52.008;4.708;2023-12-29T11:28:40;22.93;;;20.53;;
19830;SDS011;10076;52.008;4.708;2023-12-29T11:31:05;23.87;;;21.57;;
19830;SDS011;10076;52.008;4.708;2023-12-29T11:33:40;23.73;;;21.63;;
19830;SDS011;10076;52.008;4.708;2023-12-29T11:36:15;25.47;;;21.93;;
19830;SDS011;10076;52.008;4.708;2023-12-29T11:43:55;23.33;;;21.23;;
19830;SDS011;10076;52.008;4.708;2023-12-29T11:49:03;24.63;;;22.53;;
19830;SDS011;10076;52.008;4.708;2023-12-29T11:51:30;23.27;;;20.93;;
19830;SDS011;10076;52.008;4.708;2023-12-29T11:54:06;22.77;;;20.70;;
19830;SDS011;10076;52.008;4.708;2023-12-29T11:56:39;23.53;;;21.23;;
19830;SDS011;10076;52.008;4.708;2023-12-29T11:59:39;23.30;;;21.10;;
19830;SDS011;10076;52.008;4.708;2023-12-29T12:02:11;24.33;;;21.93;;
19830;SDS011;10076;52.008;4.708;2023-12-29T12:04:52;22.80;;;21.00;;
19830;SDS011;10076;52.008;4.708;2023-12-29T12:08:02;25.73;;;22.03;;
19830;SDS011;10076;52.008;4.708;2023-12-29T12:12:49;24.13;;;22.03;;
19830;SDS011;10076;52.008;4.708;2023-12-29T12:18:00;24.87;;;22.23;;
19830;SDS011;10076;52.008;4.708;2023-12-29T12:20:31;23.53;;;21.63;;
19830;SDS011;10076;52.008;4.708;2023-12-29T12:23:16;23.60;;;21.80;;
19830;SDS011;10076;52.008;4.708;2023-12-29T12:25:42;23.30;;;21.47;;
19830;SDS011;10076;52.008;4.708;2023-12-29T12:28:10;23.53;;;21.43;;
19830;SDS011;10076;52.008;4.708;2023-12-29T12:30:39;24.53;;;22.43;;
19830;SDS011;10076;52.008;4.708;2023-12-29T12:33:04;23.67;;;21.73;;
19830;SDS011;10076;52.008;4.708;2023-12-29T12:35:30;23.87;;;21.97;;
19830;SDS011;10076;52.008;4.708;2023-12-29T12:38:12;24.27;;;22.40;;
19830;SDS011;10076;52.008;4.708;2023-12-29T12:40:38;27.53;;;22.90;;
19830;SDS011;10076;52.008;4.708;2023-12-29T12:43:04;23.90;;;21.90;;
19830;SDS011;10076;52.008;4.708;2023-12-29T12:45:33;24.43;;;22.63;;
19830;SDS011;10076;52.008;4.708;2023-12-29T12:48:19;23.10;;;21.40;;
19830;SDS011;10076;52.008;4.708;2023-12-29T12:50:45;23.70;;;21.37;;
19830;SDS011;10076;52.008;4.708;2023-12-29T12:53:12;23.83;;;22.10;;
19830;SDS011;10076;52.008;4.708;2023-12-29T12:55:44;24.43;;;22.30;;
19830;SDS011;10076;52.008;4.708;2023-12-29T12:58:12;24.30;;;22.50;;
19830;SDS011;10076;52.008;4.708;2023-12-29T13:00:39;23.95;;;22.25;;
19830;SDS011;10076;52.008;4.708;2023-12-29T13:03:05;24.10;;;22.20;;
19830;SDS011;10076;52.008;4.708;2023-12-29T13:05:31;25.08;;;22.77;;
19830;SDS011;10076;52.008;4.708;2023-12-29T13:07:56;24.23;;;22.20;;
19830;SDS011;10076;52.008;4.708;2023-12-29T13:10:22;23.47;;;21.57;;
19830;SDS011;10076;52.008;4.708;2023-12-29T13:12:54;24.90;;;22.80;;
19830;SDS011;10076;52.008;4.708;2023-12-29T13:15:20;25.50;;;23.50;;
19830;SDS011;10076;52.008;4.708;2023-12-29T13:17:52;24.37;;;22.37;;
19830;SDS011;10076;52.008;4.708;2023-12-29T13:20:18;25.33;;;23.23;;
19830;SDS011;10076;52.008;4.708;2023-12-29T13:22:46;24.10;;;22.30;;
19830;SDS011;10076;52.008;4.708;2023-12-29T13:25:20;25.30;;;23.33;;
19830;SDS011;10076;52.008;4.708;2023-12-29T13:27:47;24.87;;;22.97;;
19830;SDS011;10076;52.008;4.708;2023-12-29T13:30:13;25.47;;;23.27;;
19830;SDS011;10076;52.008;4.708;2023-12-29T13:32:39;22.83;;;21.13;;
19830;SDS011;10076;52.008;4.708;2023-12-29T13:35:08;24.73;;;22.37;;
19830;SDS011;10076;52.008;4.708;2023-12-29T13:37:52;24.03;;;22.23;;
19830;SDS011;10076;52.008;4.708;2023-12-29T13:40:32;24.43;;;21.93;;
19830;SDS011;10076;52.008;4.708;2023-12-29T13:43:02;24.60;;;22.70;;
19830;SDS011;10076;52.008;4.708;2023-12-29T13:45:33;22.97;;;21.07;;
19830;SDS011;10076;52.008;4.708;2023-12-29T13:48:00;22.70;;;20.80;;
19830;SDS011;10076;52.008;4.708;2023-12-29T13:50:26;22.70;;;20.90;;
19830;SDS011;10076;52.008;4.708;2023-12-29T13:52:52;25.27;;;23.17;;
19830;SDS011;10076;52.008;4.708;2023-12-29T13:55:21;24.47;;;22.23;;
19830;SDS011;10076;52.008;4.708;2023-12-29T13:57:47;25.63;;;22.97;;
19830;SDS011;10076;52.008;4.708;2023-12-29T14:00:16;25.07;;;22.63;;
19830;SDS011;10076;52.008;4.708;2023-12-29T14:10:34;25.53;;;23.20;;
19830;SDS011;10076;52.008;4.708;2023-12-29T14:13:07;24.93;;;22.57;;
19830;SDS011;10076;52.008;4.708;2023-12-29T14:15:37;24.93;;;22.63;;
19830;SDS011;10076;52.008;4.708;2023-12-29T14:20:58;22.87;;;21.07;;
19830;SDS011;10076;52.008;4.708;2023-12-29T14:23:24;22.70;;;20.80;;
19830;SDS011;10076;52.008;4.708;2023-12-29T14:25:49;23.10;;;21.30;;
19830;SDS011;10076;52.008;4.708;2023-12-29T14:28:15;24.00;;;21.90;;
19830;SDS011;10076;52.008;4.708;2023-12-29T14:30:41;23.67;;;21.53;;
19830;SDS011;10076;52.008;4.708;2023-12-29T14:33:07;24.03;;;22.03;;
19830;SDS011;10076;52.008;4.708;2023-12-29T14:35:32;23.13;;;21.23;;
19830;SDS011;10076;52.008;4.708;2023-12-29T14:37:58;22.87;;;20.77;;
19830;SDS011;10076;52.008;4.708;2023-12-29T14:40:23;21.33;;;19.40;;
19830;SDS011;10076;52.008;4.708;2023-12-29T14:42:49;19.97;;;18.27;;
19830;SDS011;10076;52.008;4.708;2023-12-29T14:45:14;22.00;;;20.17;;
19830;SDS011;10076;52.008;4.708;2023-12-29T14:47:39;23.87;;;21.77;;
19830;SDS011;10076;52.008;4.708;2023-12-29T14:50:05;23.27;;;21.17;;